EWG7DN LIEO-EDDK
Flight info
| Callsign | EWG7DN |
|---|---|
| Flight time | 1h 38m |
| Altitude | 38000 |
| Route | OKIVA P980 DIKEL DCT RATAP DCT MEGER DCT ERTEV DCT SRN DCT ABESI DCT LADOL T163 KOVAN/N0426F340 T844 UMDAS/N0355F240 T844 ASKIK T840 GULKO GULKO3C |
| Aircraft | A20N/M-SDE2E3FGHIRWXY/LB1 |
Departure
| Time | 2026-04-21 12:44 |
|---|---|
| Airport | Olbia Costa Smeralda Airport (LIEO) |
Arrival
| Time | 2026-04-21 14:22 |
|---|---|
| Airport | Cologne Bonn Airport (EDDK) |
| Time | Latitude | Longitude | Altitude | Speed | Heading |
|---|---|---|---|---|---|
| 2026-04-21 12:30 | 40.90101 | 9.51651 | 36 ft | 0 kts | 41° |
| 2026-04-21 12:39 | 40.90103 | 9.51650 | 34 ft | 1 kts | 19° |
| 2026-04-21 12:39 | 40.90106 | 9.51644 | 34 ft | 1 kts | 321° |
| 2026-04-21 12:39 | 40.90104 | 9.51638 | 34 ft | 0 kts | 264° |
| 2026-04-21 12:39 | 40.90100 | 9.51636 | 34 ft | 1 kts | 218° |
| 2026-04-21 12:40 | 40.90055 | 9.51587 | 37 ft | 12 kts | 232° |
| 2026-04-21 12:40 | 40.89981 | 9.51514 | 38 ft | 14 kts | 194° |
| 2026-04-21 12:40 | 40.89906 | 9.51444 | 38 ft | 14 kts | 233° |
| 2026-04-21 12:40 | 40.89844 | 9.51326 | 39 ft | 17 kts | 235° |
| 2026-04-21 12:41 | 40.89771 | 9.51189 | 39 ft | 19 kts | 235° |
| 2026-04-21 12:41 | 40.89690 | 9.51035 | 41 ft | 22 kts | 235° |
| 2026-04-21 12:41 | 40.89603 | 9.50868 | 40 ft | 22 kts | 236° |
| 2026-04-21 12:41 | 40.89514 | 9.50694 | 44 ft | 24 kts | 234° |
| 2026-04-21 12:42 | 40.89434 | 9.50545 | 45 ft | 17 kts | 234° |
| 2026-04-21 12:42 | 40.89345 | 9.50442 | 46 ft | 18 kts | 187° |
| 2026-04-21 12:42 | 40.89274 | 9.50542 | 47 ft | 16 kts | 101° |
| 2026-04-21 12:42 | 40.89292 | 9.50669 | 45 ft | 5 kts | 55° |
| 2026-04-21 12:43 | 40.89305 | 9.50693 | 43 ft | 5 kts | 54° |
| 2026-04-21 12:43 | 40.89409 | 9.50890 | 43 ft | 60 kts | 55° |
| 2026-04-21 12:43 | 40.89771 | 9.51586 | 39 ft | 121 kts | 56° |
| 2026-04-21 12:43 | 40.90330 | 9.52681 | 159 ft | 157 kts | 58° |
| 2026-04-21 12:44 | 40.90957 | 9.53893 | 738 ft | 162 kts | 56° |
| 2026-04-21 12:44 | 40.91616 | 9.55121 | 1381 ft | 164 kts | 55° |
| 2026-04-21 12:44 | 40.92267 | 9.56353 | 2011 ft | 167 kts | 53° |
| 2026-04-21 12:44 | 40.92985 | 9.57684 | 2409 ft | 189 kts | 53° |
| 2026-04-21 12:45 | 40.93774 | 9.59160 | 2821 ft | 210 kts | 52° |
| 2026-04-21 12:45 | 40.94930 | 9.60497 | 3242 ft | 231 kts | 20° |
| 2026-04-21 12:45 | 40.96556 | 9.60842 | 3744 ft | 247 kts | 349° |
| 2026-04-21 12:45 | 40.98156 | 9.60013 | 4428 ft | 256 kts | 321° |
| 2026-04-21 12:46 | 40.99451 | 9.58405 | 5440 ft | 256 kts | 311° |
| 2026-04-21 12:46 | 41.00668 | 9.56673 | 6544 ft | 257 kts | 312° |
| 2026-04-21 12:46 | 41.01950 | 9.54994 | 7511 ft | 262 kts | 315° |
| 2026-04-21 12:46 | 41.03318 | 9.53382 | 8501 ft | 265 kts | 317° |
| 2026-04-21 12:47 | 41.04748 | 9.51812 | 9508 ft | 268 kts | 318° |
| 2026-04-21 12:47 | 41.06217 | 9.50253 | 10366 ft | 276 kts | 319° |
| 2026-04-21 12:47 | 41.07781 | 9.48607 | 10755 ft | 299 kts | 319° |
| 2026-04-21 12:47 | 41.09474 | 9.46828 | 11137 ft | 319 kts | 319° |
| 2026-04-21 12:48 | 41.11235 | 9.44976 | 11840 ft | 327 kts | 320° |
| 2026-04-21 12:48 | 41.13022 | 9.43098 | 12748 ft | 329 kts | 320° |
| 2026-04-21 12:48 | 41.14818 | 9.41208 | 13630 ft | 332 kts | 320° |
| 2026-04-21 12:48 | 41.16638 | 9.39291 | 14385 ft | 335 kts | 320° |
| 2026-04-21 12:49 | 41.18473 | 9.37355 | 15162 ft | 339 kts | 319° |
| 2026-04-21 12:49 | 41.20326 | 9.35393 | 15912 ft | 342 kts | 318° |
| 2026-04-21 12:49 | 41.22070 | 9.33223 | 16639 ft | 344 kts | 311° |
| 2026-04-21 12:49 | 41.23594 | 9.30766 | 17356 ft | 347 kts | 304° |
| 2026-04-21 12:50 | 41.24920 | 9.28071 | 18070 ft | 350 kts | 301° |
| 2026-04-21 12:50 | 41.26236 | 9.25334 | 18709 ft | 353 kts | 302° |
| 2026-04-21 12:50 | 41.27566 | 9.22586 | 19376 ft | 355 kts | 302° |
| 2026-04-21 12:50 | 41.28909 | 9.19813 | 20026 ft | 357 kts | 302° |
| 2026-04-21 12:51 | 41.30258 | 9.17022 | 20655 ft | 360 kts | 302° |
| 2026-04-21 12:51 | 41.31836 | 9.14422 | 21277 ft | 365 kts | 315° |
| 2026-04-21 12:51 | 41.33890 | 9.12409 | 21897 ft | 371 kts | 329° |
| 2026-04-21 12:51 | 41.36279 | 9.11166 | 22501 ft | 379 kts | 343° |
| 2026-04-21 12:52 | 41.38960 | 9.10789 | 23109 ft | 389 kts | 356° |
| 2026-04-21 12:52 | 41.41679 | 9.10888 | 23695 ft | 392 kts | 357° |
| 2026-04-21 12:52 | 41.44377 | 9.10993 | 24205 ft | 395 kts | 357° |
| 2026-04-21 12:52 | 41.47133 | 9.11096 | 24682 ft | 398 kts | 356° |
| 2026-04-21 12:53 | 41.49913 | 9.11196 | 25161 ft | 401 kts | 356° |
| 2026-04-21 12:53 | 41.52717 | 9.11293 | 25620 ft | 404 kts | 356° |
| 2026-04-21 12:53 | 41.55537 | 9.11388 | 26043 ft | 407 kts | 356° |
| 2026-04-21 12:53 | 41.58375 | 9.11409 | 26463 ft | 409 kts | 354° |
| 2026-04-21 12:54 | 41.61229 | 9.11372 | 26859 ft | 412 kts | 354° |
| 2026-04-21 12:54 | 41.64105 | 9.11324 | 27281 ft | 415 kts | 354° |
| 2026-04-21 12:54 | 41.67006 | 9.11283 | 27676 ft | 418 kts | 354° |
| 2026-04-21 12:54 | 41.69928 | 9.11252 | 28097 ft | 421 kts | 354° |
| 2026-04-21 12:55 | 41.72863 | 9.11227 | 28479 ft | 424 kts | 354° |
| 2026-04-21 12:55 | 41.75825 | 9.11203 | 28802 ft | 427 kts | 354° |
| 2026-04-21 12:55 | 41.78802 | 9.11180 | 29246 ft | 429 kts | 354° |
| 2026-04-21 12:55 | 41.81800 | 9.11157 | 29597 ft | 433 kts | 354° |
| 2026-04-21 12:56 | 41.84815 | 9.11135 | 30024 ft | 435 kts | 354° |
| 2026-04-21 12:56 | 41.87847 | 9.11112 | 30429 ft | 436 kts | 354° |
| 2026-04-21 12:56 | 41.90887 | 9.11088 | 30775 ft | 438 kts | 354° |
| 2026-04-21 12:56 | 41.93936 | 9.11066 | 31150 ft | 438 kts | 354° |
| 2026-04-21 12:57 | 41.96981 | 9.11043 | 31585 ft | 438 kts | 354° |
| 2026-04-21 12:57 | 42.00019 | 9.11022 | 32009 ft | 436 kts | 354° |
| 2026-04-21 12:57 | 42.03054 | 9.10998 | 32411 ft | 436 kts | 354° |
| 2026-04-21 12:57 | 42.06082 | 9.10974 | 32799 ft | 434 kts | 354° |
| 2026-04-21 12:58 | 42.09098 | 9.10950 | 33233 ft | 433 kts | 354° |
| 2026-04-21 12:58 | 42.12110 | 9.10926 | 33676 ft | 431 kts | 353° |
| 2026-04-21 12:58 | 42.15108 | 9.10903 | 33954 ft | 431 kts | 353° |
| 2026-04-21 12:58 | 42.18104 | 9.10880 | 34290 ft | 430 kts | 353° |
| 2026-04-21 12:59 | 42.21087 | 9.10858 | 34580 ft | 429 kts | 353° |
| 2026-04-21 12:59 | 42.24074 | 9.10833 | 34806 ft | 429 kts | 353° |
| 2026-04-21 12:59 | 42.27047 | 9.10810 | 35219 ft | 427 kts | 353° |
| 2026-04-21 12:59 | 42.30018 | 9.10789 | 35517 ft | 427 kts | 353° |
| 2026-04-21 13:00 | 42.32983 | 9.10766 | 35815 ft | 425 kts | 353° |
| 2026-04-21 13:00 | 42.35931 | 9.10743 | 36179 ft | 423 kts | 353° |
| 2026-04-21 13:00 | 42.38873 | 9.10720 | 36443 ft | 422 kts | 353° |
| 2026-04-21 13:00 | 42.41801 | 9.10698 | 36720 ft | 418 kts | 353° |
| 2026-04-21 13:01 | 42.44699 | 9.10678 | 36866 ft | 417 kts | 353° |
| 2026-04-21 13:01 | 42.50541 | 9.10625 | 37097 ft | 420 kts | 353° |
| 2026-04-21 13:01 | 42.53462 | 9.10601 | 37329 ft | 420 kts | 353° |
| 2026-04-21 13:02 | 42.56388 | 9.10577 | 37519 ft | 420 kts | 353° |
| 2026-04-21 13:02 | 42.59308 | 9.10555 | 37768 ft | 419 kts | 353° |
| 2026-04-21 13:02 | 42.65099 | 9.10508 | 37933 ft | 418 kts | 353° |
| 2026-04-21 13:03 | 42.70922 | 9.10462 | 37930 ft | 419 kts | 353° |
| 2026-04-21 13:03 | 42.76751 | 9.10592 | 37938 ft | 414 kts | 347° |
| 2026-04-21 13:04 | 42.82456 | 9.09617 | 37938 ft | 413 kts | 346° |
| 2026-04-21 13:04 | 42.88153 | 9.08619 | 37951 ft | 413 kts | 346° |
| 2026-04-21 13:05 | 42.93857 | 9.07656 | 37937 ft | 413 kts | 346° |
| 2026-04-21 13:05 | 42.99550 | 9.06705 | 37934 ft | 412 kts | 346° |
| 2026-04-21 13:06 | 43.05240 | 9.05753 | 37930 ft | 411 kts | 346° |
| 2026-04-21 13:06 | 43.10921 | 9.04799 | 37921 ft | 411 kts | 347° |
| 2026-04-21 13:07 | 43.16602 | 9.03845 | 37919 ft | 411 kts | 347° |
| 2026-04-21 13:07 | 43.22277 | 9.02889 | 37925 ft | 411 kts | 347° |
| 2026-04-21 13:08 | 43.27918 | 9.01937 | 37945 ft | 411 kts | 347° |
| 2026-04-21 13:08 | 43.33648 | 9.00964 | 37942 ft | 417 kts | 347° |
| 2026-04-21 13:09 | 43.39394 | 8.99994 | 37946 ft | 416 kts | 347° |
| 2026-04-21 13:09 | 43.45135 | 8.99021 | 37939 ft | 416 kts | 347° |
| 2026-04-21 13:10 | 43.50894 | 8.98040 | 37938 ft | 418 kts | 347° |
| 2026-04-21 13:10 | 43.56668 | 8.97057 | 37944 ft | 418 kts | 347° |
| 2026-04-21 13:11 | 43.62454 | 8.96092 | 37942 ft | 420 kts | 349° |
| 2026-04-21 13:11 | 43.68336 | 8.95992 | 37968 ft | 425 kts | 355° |
| 2026-04-21 13:12 | 43.74252 | 8.96167 | 37937 ft | 425 kts | 355° |
| 2026-04-21 13:12 | 43.80170 | 8.96334 | 37937 ft | 425 kts | 355° |
| 2026-04-21 13:13 | 43.86087 | 8.96512 | 37938 ft | 425 kts | 355° |
| 2026-04-21 13:13 | 43.92012 | 8.96693 | 37940 ft | 426 kts | 355° |
| 2026-04-21 13:14 | 43.97937 | 8.96876 | 37943 ft | 426 kts | 355° |
| 2026-04-21 13:14 | 44.03860 | 8.97059 | 37942 ft | 426 kts | 355° |
| 2026-04-21 13:15 | 44.09776 | 8.97242 | 37936 ft | 423 kts | 355° |
| 2026-04-21 13:15 | 44.15655 | 8.97425 | 37935 ft | 423 kts | 355° |
| 2026-04-21 13:16 | 44.21548 | 8.97606 | 37939 ft | 424 kts | 355° |
| 2026-04-21 13:16 | 44.27439 | 8.97789 | 37951 ft | 424 kts | 355° |
| 2026-04-21 13:17 | 44.32339 | 8.97942 | 37938 ft | 424 kts | 355° |
| 2026-04-21 13:17 | 44.39184 | 8.98156 | 37938 ft | 423 kts | 355° |
| 2026-04-21 13:18 | 44.45077 | 8.98339 | 37940 ft | 424 kts | 355° |
| 2026-04-21 13:18 | 44.50979 | 8.98525 | 37945 ft | 424 kts | 355° |
| 2026-04-21 13:19 | 44.55929 | 8.98680 | 37945 ft | 425 kts | 355° |
| 2026-04-21 13:19 | 44.61795 | 8.98865 | 37943 ft | 424 kts | 355° |
| 2026-04-21 13:20 | 44.67699 | 8.99050 | 37938 ft | 425 kts | 355° |
| 2026-04-21 13:20 | 44.73613 | 8.99237 | 37944 ft | 425 kts | 355° |
| 2026-04-21 13:21 | 44.79530 | 8.99424 | 37942 ft | 425 kts | 355° |
| 2026-04-21 13:21 | 44.85443 | 8.99612 | 37949 ft | 425 kts | 355° |
| 2026-04-21 13:22 | 44.91356 | 8.99801 | 37945 ft | 425 kts | 355° |
| 2026-04-21 13:22 | 44.97261 | 8.99987 | 37945 ft | 424 kts | 355° |
| 2026-04-21 13:23 | 45.03164 | 9.00175 | 37967 ft | 424 kts | 355° |
| 2026-04-21 13:23 | 45.09065 | 9.00364 | 37935 ft | 424 kts | 355° |
| 2026-04-21 13:24 | 45.14960 | 9.00553 | 37932 ft | 423 kts | 355° |
| 2026-04-21 13:24 | 45.20848 | 9.00742 | 37929 ft | 423 kts | 355° |
| 2026-04-21 13:25 | 45.26726 | 9.00931 | 37926 ft | 423 kts | 355° |
| 2026-04-21 13:25 | 45.32619 | 9.01121 | 37944 ft | 423 kts | 355° |
| 2026-04-21 13:26 | 45.38502 | 9.01311 | 37949 ft | 423 kts | 355° |
| 2026-04-21 13:26 | 45.44386 | 9.01501 | 37952 ft | 423 kts | 355° |
| 2026-04-21 13:27 | 45.50276 | 9.01692 | 37951 ft | 423 kts | 355° |
| 2026-04-21 13:27 | 45.56170 | 9.01883 | 37952 ft | 424 kts | 355° |
| 2026-04-21 13:28 | 45.62019 | 9.02073 | 37981 ft | 424 kts | 355° |
| 2026-04-21 13:28 | 45.67916 | 9.02279 | 37957 ft | 424 kts | 355° |
| 2026-04-21 13:29 | 45.73826 | 9.02529 | 37950 ft | 425 kts | 355° |
| 2026-04-21 13:29 | 45.79721 | 9.02776 | 37940 ft | 425 kts | 355° |
| 2026-04-21 13:30 | 45.85649 | 9.03020 | 37947 ft | 426 kts | 355° |
| 2026-04-21 13:30 | 45.91577 | 9.03264 | 37951 ft | 427 kts | 355° |
| 2026-04-21 13:31 | 45.97510 | 9.03509 | 37948 ft | 426 kts | 355° |
| 2026-04-21 13:31 | 46.03451 | 9.03754 | 37944 ft | 427 kts | 356° |
| 2026-04-21 13:32 | 46.09382 | 9.04002 | 37942 ft | 427 kts | 356° |
| 2026-04-21 13:32 | 46.15310 | 9.04246 | 37939 ft | 426 kts | 355° |
| 2026-04-21 13:33 | 46.21212 | 9.04036 | 37954 ft | 424 kts | 353° |
| 2026-04-21 13:33 | 46.27108 | 9.03790 | 37941 ft | 424 kts | 353° |
| 2026-04-21 13:34 | 46.33009 | 9.03544 | 37931 ft | 424 kts | 353° |
| 2026-04-21 13:34 | 46.38894 | 9.03292 | 37932 ft | 422 kts | 353° |
| 2026-04-21 13:35 | 46.44768 | 9.03037 | 37958 ft | 422 kts | 353° |
| 2026-04-21 13:35 | 46.50659 | 9.02777 | 37974 ft | 425 kts | 353° |
| 2026-04-21 13:36 | 46.56549 | 9.02520 | 37978 ft | 424 kts | 353° |
| 2026-04-21 13:36 | 46.62412 | 9.02267 | 38004 ft | 425 kts | 353° |
| 2026-04-21 13:37 | 46.68320 | 9.02011 | 37983 ft | 423 kts | 353° |
| 2026-04-21 13:37 | 46.74205 | 9.01754 | 37991 ft | 423 kts | 353° |
| 2026-04-21 13:38 | 46.80076 | 9.01493 | 38028 ft | 423 kts | 353° |
| 2026-04-21 13:38 | 46.86016 | 9.01229 | 38020 ft | 428 kts | 353° |
| 2026-04-21 13:39 | 46.91966 | 9.00968 | 38045 ft | 425 kts | 353° |
| 2026-04-21 13:39 | 46.97895 | 9.00706 | 38055 ft | 428 kts | 353° |
| 2026-04-21 13:40 | 47.03858 | 9.00440 | 38087 ft | 426 kts | 353° |
| 2026-04-21 13:40 | 47.09774 | 9.00179 | 38055 ft | 426 kts | 353° |
| 2026-04-21 13:41 | 47.15719 | 8.99912 | 38070 ft | 426 kts | 353° |
| 2026-04-21 13:41 | 47.21645 | 8.99649 | 38081 ft | 426 kts | 353° |
| 2026-04-21 13:42 | 47.27577 | 8.99382 | 38091 ft | 428 kts | 353° |
| 2026-04-21 13:42 | 47.33538 | 8.99116 | 38107 ft | 430 kts | 354° |
| 2026-04-21 13:43 | 47.39458 | 8.98852 | 38099 ft | 427 kts | 353° |
| 2026-04-21 13:43 | 47.45393 | 8.98585 | 38118 ft | 427 kts | 354° |
| 2026-04-21 13:44 | 47.51361 | 8.98314 | 38101 ft | 429 kts | 354° |
| 2026-04-21 13:44 | 47.57320 | 8.98046 | 38102 ft | 428 kts | 354° |
| 2026-04-21 13:45 | 47.63276 | 8.97777 | 38104 ft | 428 kts | 354° |
| 2026-04-21 13:45 | 47.69232 | 8.97505 | 38097 ft | 428 kts | 354° |
| 2026-04-21 13:46 | 47.75182 | 8.97234 | 38091 ft | 428 kts | 354° |
| 2026-04-21 13:46 | 47.81146 | 8.96963 | 38094 ft | 428 kts | 354° |
| 2026-04-21 13:47 | 47.87086 | 8.96691 | 38099 ft | 428 kts | 354° |
| 2026-04-21 13:47 | 47.93059 | 8.96417 | 38098 ft | 429 kts | 354° |
| 2026-04-21 13:48 | 47.99022 | 8.96143 | 38106 ft | 429 kts | 354° |
| 2026-04-21 13:48 | 48.04992 | 8.95868 | 38098 ft | 429 kts | 354° |
| 2026-04-21 13:49 | 48.10961 | 8.95593 | 38114 ft | 430 kts | 354° |
| 2026-04-21 13:49 | 48.16944 | 8.95459 | 38129 ft | 432 kts | 359° |
| 2026-04-21 13:50 | 48.22959 | 8.96315 | 38134 ft | 434 kts | 1° |
| 2026-04-21 13:50 | 48.28973 | 8.97204 | 38138 ft | 435 kts | 1° |
| 2026-04-21 13:51 | 48.35007 | 8.98106 | 38147 ft | 436 kts | 2° |
| 2026-04-21 13:51 | 48.41045 | 8.99024 | 38154 ft | 436 kts | 2° |
| 2026-04-21 13:52 | 48.47091 | 8.99947 | 38163 ft | 437 kts | 2° |
| 2026-04-21 13:52 | 48.53137 | 9.00870 | 38167 ft | 437 kts | 2° |
| 2026-04-21 13:53 | 48.59186 | 9.01795 | 38167 ft | 437 kts | 2° |
| 2026-04-21 13:53 | 48.65183 | 9.02922 | 38167 ft | 438 kts | 5° |
| 2026-04-21 13:54 | 48.71208 | 9.04365 | 38166 ft | 438 kts | 5° |
| 2026-04-21 13:54 | 48.77234 | 9.05791 | 38158 ft | 439 kts | 5° |
| 2026-04-21 13:55 | 48.83268 | 9.07166 | 38159 ft | 437 kts | 1° |
| 2026-04-21 13:55 | 48.89291 | 9.07026 | 38157 ft | 431 kts | 349° |
| 2026-04-21 13:56 | 48.95090 | 9.04957 | 38169 ft | 427 kts | 339° |
| 2026-04-21 13:56 | 49.00740 | 9.02118 | 38148 ft | 428 kts | 340° |
| 2026-04-21 13:57 | 49.06397 | 8.99293 | 38166 ft | 428 kts | 340° |
| 2026-04-21 13:57 | 49.12056 | 8.96439 | 38158 ft | 428 kts | 340° |
| 2026-04-21 13:58 | 49.17719 | 8.93569 | 38167 ft | 429 kts | 339° |
| 2026-04-21 13:58 | 49.23396 | 8.90684 | 38171 ft | 430 kts | 340° |
| 2026-04-21 13:59 | 49.29037 | 8.87811 | 38170 ft | 430 kts | 340° |
| 2026-04-21 13:59 | 49.34722 | 8.84910 | 38184 ft | 431 kts | 340° |
| 2026-04-21 14:00 | 49.40411 | 8.82002 | 38204 ft | 431 kts | 340° |
| 2026-04-21 14:00 | 49.46180 | 8.79439 | 38212 ft | 432 kts | 343° |
| 2026-04-21 14:01 | 49.51975 | 8.76979 | 38194 ft | 432 kts | 342° |
| 2026-04-21 14:01 | 49.57765 | 8.74460 | 38199 ft | 433 kts | 342° |
| 2026-04-21 14:02 | 49.63558 | 8.71912 | 38190 ft | 433 kts | 342° |
| 2026-04-21 14:03 | 49.72249 | 8.68074 | 38014 ft | 433 kts | 342° |
| 2026-04-21 14:03 | 49.74160 | 8.67228 | 37844 ft | 431 kts | 342° |
| 2026-04-21 14:03 | 49.78016 | 8.65521 | 37496 ft | 430 kts | 342° |
| 2026-04-21 14:03 | 49.80893 | 8.64244 | 37239 ft | 430 kts | 342° |
| 2026-04-21 14:04 | 49.83777 | 8.62963 | 36704 ft | 433 kts | 342° |
| 2026-04-21 14:04 | 49.86677 | 8.61672 | 35957 ft | 436 kts | 342° |
| 2026-04-21 14:04 | 49.89599 | 8.60369 | 35030 ft | 442 kts | 343° |
| 2026-04-21 14:04 | 49.91567 | 8.59491 | 34453 ft | 445 kts | 343° |
| 2026-04-21 14:05 | 49.94545 | 8.58162 | 33570 ft | 445 kts | 343° |
| 2026-04-21 14:05 | 49.98537 | 8.56379 | 32313 ft | 446 kts | 343° |
| 2026-04-21 14:05 | 50.00509 | 8.55496 | 31670 ft | 445 kts | 343° |
| 2026-04-21 14:05 | 50.04478 | 8.53718 | 30310 ft | 439 kts | 343° |
| 2026-04-21 14:06 | 50.06387 | 8.52765 | 29807 ft | 431 kts | 340° |
| 2026-04-21 14:06 | 50.09183 | 8.51236 | 29184 ft | 422 kts | 340° |
| 2026-04-21 14:06 | 50.11942 | 8.49752 | 28464 ft | 418 kts | 341° |
| 2026-04-21 14:06 | 50.14683 | 8.48281 | 27752 ft | 415 kts | 341° |
| 2026-04-21 14:07 | 50.17408 | 8.46817 | 27046 ft | 412 kts | 341° |
| 2026-04-21 14:07 | 50.20112 | 8.45360 | 26332 ft | 410 kts | 341° |
| 2026-04-21 14:07 | 50.22802 | 8.43907 | 25629 ft | 408 kts | 341° |
| 2026-04-21 14:07 | 50.25479 | 8.42458 | 24913 ft | 407 kts | 341° |
| 2026-04-21 14:08 | 50.28137 | 8.40933 | 24166 ft | 406 kts | 338° |
| 2026-04-21 14:08 | 50.30650 | 8.38936 | 23416 ft | 406 kts | 330° |
| 2026-04-21 14:08 | 50.33022 | 8.36564 | 22612 ft | 404 kts | 328° |
| 2026-04-21 14:08 | 50.35396 | 8.34192 | 21650 ft | 406 kts | 329° |
| 2026-04-21 14:09 | 50.37785 | 8.31816 | 20728 ft | 408 kts | 330° |
| 2026-04-21 14:09 | 50.40171 | 8.29441 | 20046 ft | 404 kts | 329° |
| 2026-04-21 14:09 | 50.42538 | 8.27079 | 19333 ft | 402 kts | 330° |
| 2026-04-21 14:09 | 50.44889 | 8.24728 | 18583 ft | 398 kts | 330° |
| 2026-04-21 14:10 | 50.47211 | 8.22402 | 17496 ft | 394 kts | 330° |
| 2026-04-21 14:10 | 50.49510 | 8.20095 | 16469 ft | 389 kts | 330° |
| 2026-04-21 14:10 | 50.51775 | 8.17820 | 15489 ft | 385 kts | 330° |
| 2026-04-21 14:10 | 50.54018 | 8.15564 | 14528 ft | 380 kts | 330° |
| 2026-04-21 14:11 | 50.56234 | 8.13332 | 13589 ft | 376 kts | 330° |
| 2026-04-21 14:11 | 50.58399 | 8.11150 | 12941 ft | 363 kts | 330° |
| 2026-04-21 14:11 | 50.60496 | 8.09032 | 12298 ft | 352 kts | 330° |
| 2026-04-21 14:11 | 50.62528 | 8.06977 | 11654 ft | 342 kts | 330° |
| 2026-04-21 14:12 | 50.64507 | 8.04972 | 11045 ft | 334 kts | 330° |
| 2026-04-21 14:12 | 50.66440 | 8.03014 | 10453 ft | 327 kts | 330° |
| 2026-04-21 14:12 | 50.68303 | 8.01124 | 10213 ft | 308 kts | 330° |
| 2026-04-21 14:12 | 50.70066 | 7.99328 | 9902 ft | 298 kts | 330° |
| 2026-04-21 14:13 | 50.71792 | 7.97576 | 9581 ft | 292 kts | 330° |
| 2026-04-21 14:13 | 50.73474 | 7.95866 | 9414 ft | 285 kts | 330° |
| 2026-04-21 14:13 | 50.74987 | 7.93756 | 9116 ft | 299 kts | 309° |
| 2026-04-21 14:13 | 50.75858 | 7.90742 | 8758 ft | 305 kts | 283° |
| 2026-04-21 14:14 | 50.76126 | 7.87457 | 8482 ft | 301 kts | 275° |
| 2026-04-21 14:14 | 50.76221 | 7.84173 | 8173 ft | 296 kts | 273° |
| 2026-04-21 14:14 | 50.76308 | 7.80961 | 7797 ft | 292 kts | 274° |
| 2026-04-21 14:14 | 50.76432 | 7.77739 | 7304 ft | 294 kts | 275° |
| 2026-04-21 14:15 | 50.76590 | 7.74570 | 7029 ft | 287 kts | 276° |
| 2026-04-21 14:15 | 50.76763 | 7.71426 | 6554 ft | 289 kts | 277° |
| 2026-04-21 14:15 | 50.76944 | 7.68283 | 6155 ft | 288 kts | 277° |
| 2026-04-21 14:15 | 50.77129 | 7.65147 | 5823 ft | 284 kts | 277° |
| 2026-04-21 14:16 | 50.77313 | 7.62045 | 5340 ft | 286 kts | 277° |
| 2026-04-21 14:16 | 50.77496 | 7.58928 | 5003 ft | 283 kts | 277° |
| 2026-04-21 14:16 | 50.77675 | 7.55844 | 4566 ft | 284 kts | 277° |
| 2026-04-21 14:16 | 50.77854 | 7.52747 | 4208 ft | 281 kts | 277° |
| 2026-04-21 14:17 | 50.78029 | 7.49678 | 3812 ft | 280 kts | 277° |
| 2026-04-21 14:17 | 50.78198 | 7.46690 | 3529 ft | 275 kts | 277° |
| 2026-04-21 14:17 | 50.78369 | 7.43676 | 3200 ft | 273 kts | 277° |
| 2026-04-21 14:17 | 50.78533 | 7.40742 | 3100 ft | 268 kts | 277° |
| 2026-04-21 14:18 | 50.78700 | 7.37795 | 3008 ft | 267 kts | 277° |
| 2026-04-21 14:18 | 50.78858 | 7.34944 | 2988 ft | 253 kts | 277° |
| 2026-04-21 14:18 | 50.79005 | 7.32290 | 2986 ft | 228 kts | 277° |
| 2026-04-21 14:18 | 50.79129 | 7.29978 | 3006 ft | 196 kts | 278° |
| 2026-04-21 14:19 | 50.79232 | 7.28004 | 2978 ft | 165 kts | 278° |
| 2026-04-21 14:19 | 50.79325 | 7.26307 | 2994 ft | 148 kts | 283° |
| 2026-04-21 14:19 | 50.79717 | 7.24920 | 2966 ft | 136 kts | 314° |
| 2026-04-21 14:19 | 50.80324 | 7.23813 | 2761 ft | 131 kts | 322° |
| 2026-04-21 14:20 | 50.81007 | 7.22874 | 2480 ft | 130 kts | 327° |
| 2026-04-21 14:20 | 50.81710 | 7.21985 | 2179 ft | 129 kts | 328° |
| 2026-04-21 14:20 | 50.82397 | 7.21099 | 1782 ft | 131 kts | 327° |
| 2026-04-21 14:20 | 50.83093 | 7.20126 | 1439 ft | 133 kts | 322° |
| 2026-04-21 14:21 | 50.83755 | 7.19133 | 1095 ft | 133 kts | 323° |
| 2026-04-21 14:21 | 50.84439 | 7.18147 | 759 ft | 133 kts | 322° |
| 2026-04-21 14:21 | 50.85115 | 7.17152 | 477 ft | 130 kts | 324° |
| 2026-04-21 14:21 | 50.85769 | 7.16208 | 322 ft | 125 kts | 323° |
| 2026-04-21 14:22 | 50.86365 | 7.15385 | 270 ft | 91 kts | 317° |
| 2026-04-21 14:22 | 50.86678 | 7.14907 | 260 ft | 38 kts | 310° |
| 2026-04-21 14:22 | 50.86850 | 7.14581 | 255 ft | 39 kts | 293° |
| 2026-04-21 14:22 | 50.86884 | 7.14359 | 258 ft | 11 kts | 279° |
| 2026-04-21 14:23 | 50.86901 | 7.14208 | 254 ft | 18 kts | 281° |
| 2026-04-21 14:23 | 50.86967 | 7.14016 | 249 ft | 22 kts | 317° |
| 2026-04-21 14:23 | 50.87071 | 7.13867 | 245 ft | 20 kts | 317° |
| 2026-04-21 14:23 | 50.87172 | 7.13718 | 242 ft | 20 kts | 315° |
| 2026-04-21 14:24 | 50.87266 | 7.13580 | 239 ft | 19 kts | 317° |
| 2026-04-21 14:24 | 50.87348 | 7.13424 | 239 ft | 18 kts | 288° |
| 2026-04-21 14:24 | 50.87386 | 7.13253 | 235 ft | 16 kts | 319° |
| 2026-04-21 14:24 | 50.87472 | 7.13128 | 232 ft | 15 kts | 318° |
| 2026-04-21 14:25 | 50.87561 | 7.12999 | 230 ft | 20 kts | 317° |
| 2026-04-21 14:25 | 50.87664 | 7.12848 | 230 ft | 16 kts | 316° |
| 2026-04-21 14:25 | 50.87752 | 7.12721 | 230 ft | 12 kts | 312° |
| 2026-04-21 14:25 | 50.87763 | 7.12589 | 230 ft | 14 kts | 248° |
| 2026-04-21 14:26 | 50.87717 | 7.12508 | 230 ft | 9 kts | 248° |
| 2026-04-21 14:26 | 50.87728 | 7.12406 | 230 ft | 6 kts | 288° |
| 2026-04-21 14:26 | 50.87732 | 7.12387 | 232 ft | 0 kts | 288° |